sensor_id;sensor_type;location;lat;lon;timestamp;P1;durP1;ratioP1;P2;durP2;ratioP2
33553;SDS011;19885;42.208;24.952;2022-08-21T00:00:59;11.30;;;4.63;;
33553;SDS011;19885;42.208;24.952;2022-08-21T00:03:28;19.03;;;5.10;;
33553;SDS011;19885;42.208;24.952;2022-08-21T00:05:53;12.40;;;5.37;;
33553;SDS011;19885;42.208;24.952;2022-08-21T00:08:19;17.17;;;5.20;;
33553;SDS011;19885;42.208;24.952;2022-08-21T00:10:46;10.63;;;5.23;;
33553;SDS011;19885;42.208;24.952;2022-08-21T00:13:13;20.13;;;5.70;;
33553;SDS011;19885;42.208;24.952;2022-08-21T00:15:40;6.55;;;3.95;;
33553;SDS011;19885;42.208;24.952;2022-08-21T00:18:06;8.82;;;4.88;;
33553;SDS011;19885;42.208;24.952;2022-08-21T00:20:39;14.73;;;4.97;;
33553;SDS011;19885;42.208;24.952;2022-08-21T00:23:05;17.37;;;6.17;;
33553;SDS011;19885;42.208;24.952;2022-08-21T00:25:31;10.47;;;5.63;;
33553;SDS011;19885;42.208;24.952;2022-08-21T00:27:57;7.47;;;4.65;;
33553;SDS011;19885;42.208;24.952;2022-08-21T00:30:23;11.50;;;5.20;;
33553;SDS011;19885;42.208;24.952;2022-08-21T00:32:50;7.60;;;3.97;;
33553;SDS011;19885;42.208;24.952;2022-08-21T00:35:18;11.00;;;4.77;;
33553;SDS011;19885;42.208;24.952;2022-08-21T00:37:46;11.20;;;4.90;;
33553;SDS011;19885;42.208;24.952;2022-08-21T00:40:17;8.97;;;5.30;;
33553;SDS011;19885;42.208;24.952;2022-08-21T00:42:45;9.33;;;4.60;;
33553;SDS011;19885;42.208;24.952;2022-08-21T00:45:11;11.47;;;4.83;;
33553;SDS011;19885;42.208;24.952;2022-08-21T00:47:37;8.20;;;4.63;;
33553;SDS011;19885;42.208;24.952;2022-08-21T00:50:04;14.30;;;5.27;;
33553;SDS011;19885;42.208;24.952;2022-08-21T00:52:32;6.77;;;4.10;;
33553;SDS011;19885;42.208;24.952;2022-08-21T00:55:00;10.57;;;4.73;;
33553;SDS011;19885;42.208;24.952;2022-08-21T00:57:33;6.37;;;4.53;;
33553;SDS011;19885;42.208;24.952;2022-08-21T01:00:06;11.00;;;4.83;;
33553;SDS011;19885;42.208;24.952;2022-08-21T01:02:35;11.10;;;4.47;;
33553;SDS011;19885;42.208;24.952;2022-08-21T01:05:01;8.13;;;4.50;;
33553;SDS011;19885;42.208;24.952;2022-08-21T01:07:28;10.20;;;3.87;;
33553;SDS011;19885;42.208;24.952;2022-08-21T01:09:54;10.13;;;5.80;;
33553;SDS011;19885;42.208;24.952;2022-08-21T01:12:22;11.20;;;5.77;;
33553;SDS011;19885;42.208;24.952;2022-08-21T01:14:48;9.40;;;4.40;;
33553;SDS011;19885;42.208;24.952;2022-08-21T01:17:14;9.00;;;5.17;;
33553;SDS011;19885;42.208;24.952;2022-08-21T01:19:41;10.43;;;5.27;;
33553;SDS011;19885;42.208;24.952;2022-08-21T01:22:07;8.37;;;4.70;;
33553;SDS011;19885;42.208;24.952;2022-08-21T01:24:33;14.07;;;5.10;;
33553;SDS011;19885;42.208;24.952;2022-08-21T01:26:59;6.70;;;4.70;;
33553;SDS011;19885;42.208;24.952;2022-08-21T01:29:39;9.07;;;4.75;;
33553;SDS011;19885;42.208;24.952;2022-08-21T01:32:11;8.57;;;4.57;;
33553;SDS011;19885;42.208;24.952;2022-08-21T01:34:41;11.70;;;5.40;;
33553;SDS011;19885;42.208;24.952;2022-08-21T01:37:08;12.68;;;5.68;;
33553;SDS011;19885;42.208;24.952;2022-08-21T01:39:35;44.58;;;5.90;;
33553;SDS011;19885;42.208;24.952;2022-08-21T01:42:01;13.65;;;5.78;;
33553;SDS011;19885;42.208;24.952;2022-08-21T01:44:27;9.30;;;4.38;;
33553;SDS011;19885;42.208;24.952;2022-08-21T01:46:53;10.30;;;4.43;;
33553;SDS011;19885;42.208;24.952;2022-08-21T01:49:21;7.63;;;3.97;;
33553;SDS011;19885;42.208;24.952;2022-08-21T01:51:46;4.93;;;3.90;;
33553;SDS011;19885;42.208;24.952;2022-08-21T01:54:12;7.78;;;3.75;;
33553;SDS011;19885;42.208;24.952;2022-08-21T01:56:42;12.75;;;4.95;;
33553;SDS011;19885;42.208;24.952;2022-08-21T01:59:11;10.60;;;5.22;;
33553;SDS011;19885;42.208;24.952;2022-08-21T02:01:40;10.93;;;5.65;;
33553;SDS011;19885;42.208;24.952;2022-08-21T02:04:09;8.38;;;5.68;;
33553;SDS011;19885;42.208;24.952;2022-08-21T02:06:36;12.35;;;5.03;;
33553;SDS011;19885;42.208;24.952;2022-08-21T02:09:03;13.13;;;5.40;;
33553;SDS011;19885;42.208;24.952;2022-08-21T02:11:30;8.38;;;5.13;;
33553;SDS011;19885;42.208;24.952;2022-08-21T02:13:56;7.88;;;5.00;;
33553;SDS011;19885;42.208;24.952;2022-08-21T02:16:22;13.13;;;4.88;;
33553;SDS011;19885;42.208;24.952;2022-08-21T02:18:47;7.68;;;4.47;;
33553;SDS011;19885;42.208;24.952;2022-08-21T02:21:13;15.55;;;5.07;;
33553;SDS011;19885;42.208;24.952;2022-08-21T02:23:39;6.85;;;4.85;;
33553;SDS011;19885;42.208;24.952;2022-08-21T02:26:05;11.38;;;4.55;;
33553;SDS011;19885;42.208;24.952;2022-08-21T02:28:32;6.90;;;4.53;;
33553;SDS011;19885;42.208;24.952;2022-08-21T02:30:58;11.87;;;4.90;;
33553;SDS011;19885;42.208;24.952;2022-08-21T02:33:24;10.93;;;5.17;;
33553;SDS011;19885;42.208;24.952;2022-08-21T02:35:50;8.77;;;4.97;;
33553;SDS011;19885;42.208;24.952;2022-08-21T02:38:18;12.10;;;5.23;;
33553;SDS011;19885;42.208;24.952;2022-08-21T02:40:47;11.70;;;5.57;;
33553;SDS011;19885;42.208;24.952;2022-08-21T02:43:14;9.10;;;5.20;;
33553;SDS011;19885;42.208;24.952;2022-08-21T02:45:41;10.53;;;6.00;;
33553;SDS011;19885;42.208;24.952;2022-08-21T02:48:08;12.47;;;6.13;;
33553;SDS011;19885;42.208;24.952;2022-08-21T02:50:39;9.40;;;5.67;;
33553;SDS011;19885;42.208;24.952;2022-08-21T02:53:12;11.20;;;5.50;;
33553;SDS011;19885;42.208;24.952;2022-08-21T02:55:40;15.87;;;5.57;;
33553;SDS011;19885;42.208;24.952;2022-08-21T02:58:06;12.50;;;5.80;;
33553;SDS011;19885;42.208;24.952;2022-08-21T03:00:33;11.10;;;4.60;;
33553;SDS011;19885;42.208;24.952;2022-08-21T03:03:00;15.37;;;5.83;;
33553;SDS011;19885;42.208;24.952;2022-08-21T03:05:28;17.87;;;6.17;;
33553;SDS011;19885;42.208;24.952;2022-08-21T03:07:56;9.53;;;5.23;;
33553;SDS011;19885;42.208;24.952;2022-08-21T03:10:23;12.47;;;4.93;;
33553;SDS011;19885;42.208;24.952;2022-08-21T03:12:50;10.90;;;4.57;;
33553;SDS011;19885;42.208;24.952;2022-08-21T03:15:16;9.83;;;5.57;;
33553;SDS011;19885;42.208;24.952;2022-08-21T03:17:45;9.03;;;5.80;;
33553;SDS011;19885;42.208;24.952;2022-08-21T03:20:12;8.17;;;4.70;;
33553;SDS011;19885;42.208;24.952;2022-08-21T03:22:39;9.70;;;5.07;;
33553;SDS011;19885;42.208;24.952;2022-08-21T03:25:05;8.20;;;4.87;;
33553;SDS011;19885;42.208;24.952;2022-08-21T03:27:31;8.97;;;5.33;;
33553;SDS011;19885;42.208;24.952;2022-08-21T03:29:59;17.05;;;6.20;;
33553;SDS011;19885;42.208;24.952;2022-08-21T03:32:25;10.68;;;5.60;;
33553;SDS011;19885;42.208;24.952;2022-08-21T03:34:51;8.00;;;4.80;;
33553;SDS011;19885;42.208;24.952;2022-08-21T03:37:16;8.40;;;5.72;;
33553;SDS011;19885;42.208;24.952;2022-08-21T03:39:44;14.15;;;6.22;;
33553;SDS011;19885;42.208;24.952;2022-08-21T03:42:10;9.65;;;5.22;;
33553;SDS011;19885;42.208;24.952;2022-08-21T03:44:37;8.20;;;5.97;;
33553;SDS011;19885;42.208;24.952;2022-08-21T03:47:04;8.48;;;5.10;;
33553;SDS011;19885;42.208;24.952;2022-08-21T03:49:30;12.88;;;6.03;;
33553;SDS011;19885;42.208;24.952;2022-08-21T03:51:56;16.38;;;6.22;;
33553;SDS011;19885;42.208;24.952;2022-08-21T03:54:21;10.45;;;4.68;;
33553;SDS011;19885;42.208;24.952;2022-08-21T03:56:47;11.35;;;5.82;;
33553;SDS011;19885;42.208;24.952;2022-08-21T03:59:12;9.23;;;4.90;;
33553;SDS011;19885;42.208;24.952;2022-08-21T04:01:38;13.50;;;5.60;;
33553;SDS011;19885;42.208;24.952;2022-08-21T04:04:04;11.02;;;4.70;;
33553;SDS011;19885;42.208;24.952;2022-08-21T04:06:30;9.60;;;5.68;;
33553;SDS011;19885;42.208;24.952;2022-08-21T04:08:56;9.13;;;5.90;;
33553;SDS011;19885;42.208;24.952;2022-08-21T04:11:21;12.65;;;6.30;;
33553;SDS011;19885;42.208;24.952;2022-08-21T04:13:47;9.90;;;5.82;;
33553;SDS011;19885;42.208;24.952;2022-08-21T04:16:13;12.18;;;6.28;;
33553;SDS011;19885;42.208;24.952;2022-08-21T04:18:39;12.70;;;6.53;;
33553;SDS011;19885;42.208;24.952;2022-08-21T04:21:05;10.30;;;6.45;;
33553;SDS011;19885;42.208;24.952;2022-08-21T04:23:32;12.05;;;6.95;;
33553;SDS011;19885;42.208;24.952;2022-08-21T04:25:58;12.95;;;6.05;;
33553;SDS011;19885;42.208;24.952;2022-08-21T04:28:24;18.10;;;6.40;;
33553;SDS011;19885;42.208;24.952;2022-08-21T04:30:51;9.43;;;5.45;;
33553;SDS011;19885;42.208;24.952;2022-08-21T04:33:17;14.90;;;6.15;;
33553;SDS011;19885;42.208;24.952;2022-08-21T04:35:44;9.88;;;5.53;;
33553;SDS011;19885;42.208;24.952;2022-08-21T04:38:10;12.90;;;5.88;;
33553;SDS011;19885;42.208;24.952;2022-08-21T04:40:35;8.52;;;5.43;;
33553;SDS011;19885;42.208;24.952;2022-08-21T04:43:03;13.25;;;4.93;;
33553;SDS011;19885;42.208;24.952;2022-08-21T04:45:35;9.50;;;5.20;;
33553;SDS011;19885;42.208;24.952;2022-08-21T04:48:11;9.48;;;4.35;;
33553;SDS011;19885;42.208;24.952;2022-08-21T04:50:41;5.68;;;3.70;;
33553;SDS011;19885;42.208;24.952;2022-08-21T04:53:33;8.40;;;3.75;;
33553;SDS011;19885;42.208;24.952;2022-08-21T04:56:07;6.63;;;3.50;;
33553;SDS011;19885;42.208;24.952;2022-08-21T04:58:36;6.63;;;4.45;;
33553;SDS011;19885;42.208;24.952;2022-08-21T05:01:04;7.65;;;4.22;;
33553;SDS011;19885;42.208;24.952;2022-08-21T05:03:33;9.07;;;3.30;;
33553;SDS011;19885;42.208;24.952;2022-08-21T05:06:03;8.65;;;4.43;;
33553;SDS011;19885;42.208;24.952;2022-08-21T05:08:31;7.97;;;4.05;;
33553;SDS011;19885;42.208;24.952;2022-08-21T05:10:58;9.13;;;4.93;;
33553;SDS011;19885;42.208;24.952;2022-08-21T05:13:24;9.27;;;4.17;;
33553;SDS011;19885;42.208;24.952;2022-08-21T05:15:49;8.57;;;4.22;;
33553;SDS011;19885;42.208;24.952;2022-08-21T05:18:15;8.70;;;4.00;;
33553;SDS011;19885;42.208;24.952;2022-08-21T05:20:41;17.30;;;5.40;;
33553;SDS011;19885;42.208;24.952;2022-08-21T05:23:11;9.87;;;4.47;;
33553;SDS011;19885;42.208;24.952;2022-08-21T05:25:39;7.63;;;4.43;;
33553;SDS011;19885;42.208;24.952;2022-08-21T05:28:05;8.90;;;5.20;;
33553;SDS011;19885;42.208;24.952;2022-08-21T05:30:31;8.63;;;5.60;;
33553;SDS011;19885;42.208;24.952;2022-08-21T05:32:59;7.97;;;5.13;;
33553;SDS011;19885;42.208;24.952;2022-08-21T05:35:26;17.57;;;6.47;;
33553;SDS011;19885;42.208;24.952;2022-08-21T05:37:53;11.20;;;5.63;;
33553;SDS011;19885;42.208;24.952;2022-08-21T05:40:19;8.45;;;6.43;;
33553;SDS011;19885;42.208;24.952;2022-08-21T05:42:44;16.50;;;6.82;;
33553;SDS011;19885;42.208;24.952;2022-08-21T05:45:10;18.92;;;5.88;;
33553;SDS011;19885;42.208;24.952;2022-08-21T05:47:36;7.90;;;6.13;;
33553;SDS011;19885;42.208;24.952;2022-08-21T05:50:02;10.55;;;6.28;;
33553;SDS011;19885;42.208;24.952;2022-08-21T05:52:28;16.40;;;6.28;;
33553;SDS011;19885;42.208;24.952;2022-08-21T05:54:54;15.15;;;7.03;;
33553;SDS011;19885;42.208;24.952;2022-08-21T05:57:20;21.92;;;10.35;;
33553;SDS011;19885;42.208;24.952;2022-08-21T05:59:46;11.88;;;6.15;;
33553;SDS011;19885;42.208;24.952;2022-08-21T06:02:12;15.68;;;5.65;;
33553;SDS011;19885;42.208;24.952;2022-08-21T06:04:38;15.77;;;7.47;;
33553;SDS011;19885;42.208;24.952;2022-08-21T06:07:04;14.48;;;8.00;;
33553;SDS011;19885;42.208;24.952;2022-08-21T06:09:30;13.60;;;8.90;;
33553;SDS011;19885;42.208;24.952;2022-08-21T06:11:56;17.60;;;7.57;;
33553;SDS011;19885;42.208;24.952;2022-08-21T06:14:21;16.90;;;9.00;;
33553;SDS011;19885;42.208;24.952;2022-08-21T06:16:46;13.37;;;8.40;;
33553;SDS011;19885;42.208;24.952;2022-08-21T06:19:12;12.20;;;7.17;;
33553;SDS011;19885;42.208;24.952;2022-08-21T06:21:38;16.33;;;9.67;;
33553;SDS011;19885;42.208;24.952;2022-08-21T06:24:04;28.23;;;13.27;;
33553;SDS011;19885;42.208;24.952;2022-08-21T06:26:29;15.53;;;10.17;;
33553;SDS011;19885;42.208;24.952;2022-08-21T06:30:18;26.37;;;11.53;;
33553;SDS011;19885;42.208;24.952;2022-08-21T06:32:44;19.20;;;11.43;;
33553;SDS011;19885;42.208;24.952;2022-08-21T06:35:10;16.77;;;11.20;;
33553;SDS011;19885;42.208;24.952;2022-08-21T06:37:36;18.63;;;10.27;;
33553;SDS011;19885;42.208;24.952;2022-08-21T06:40:03;18.30;;;9.37;;
33553;SDS011;19885;42.208;24.952;2022-08-21T06:42:29;13.13;;;8.55;;
33553;SDS011;19885;42.208;24.952;2022-08-21T06:44:54;10.73;;;8.30;;
33553;SDS011;19885;42.208;24.952;2022-08-21T06:47:27;18.95;;;9.20;;
33553;SDS011;19885;42.208;24.952;2022-08-21T06:49:53;16.63;;;10.63;;
33553;SDS011;19885;42.208;24.952;2022-08-21T06:52:19;16.23;;;8.88;;
33553;SDS011;19885;42.208;24.952;2022-08-21T06:54:47;17.70;;;8.75;;
33553;SDS011;19885;42.208;24.952;2022-08-21T06:57:16;14.77;;;8.48;;
33553;SDS011;19885;42.208;24.952;2022-08-21T06:59:42;17.30;;;9.73;;
33553;SDS011;19885;42.208;24.952;2022-08-21T07:02:07;13.13;;;9.38;;
33553;SDS011;19885;42.208;24.952;2022-08-21T07:04:33;19.45;;;7.93;;
33553;SDS011;19885;42.208;24.952;2022-08-21T07:06:58;12.95;;;7.97;;
33553;SDS011;19885;42.208;24.952;2022-08-21T07:09:26;12.20;;;8.60;;
33553;SDS011;19885;42.208;24.952;2022-08-21T07:11:53;13.50;;;7.97;;
33553;SDS011;19885;42.208;24.952;2022-08-21T07:14:20;21.00;;;9.82;;
33553;SDS011;19885;42.208;24.952;2022-08-21T07:16:47;14.55;;;8.90;;
33553;SDS011;19885;42.208;24.952;2022-08-21T07:19:13;12.70;;;7.25;;
33553;SDS011;19885;42.208;24.952;2022-08-21T07:21:38;11.18;;;7.22;;
33553;SDS011;19885;42.208;24.952;2022-08-21T07:24:04;13.77;;;7.30;;
33553;SDS011;19885;42.208;24.952;2022-08-21T07:26:29;11.35;;;7.63;;
33553;SDS011;19885;42.208;24.952;2022-08-21T07:28:55;10.85;;;6.85;;
33553;SDS011;19885;42.208;24.952;2022-08-21T07:31:22;12.93;;;7.45;;
33553;SDS011;19885;42.208;24.952;2022-08-21T07:33:49;10.38;;;6.25;;
33553;SDS011;19885;42.208;24.952;2022-08-21T07:36:14;13.73;;;6.85;;
33553;SDS011;19885;42.208;24.952;2022-08-21T07:38:40;12.93;;;7.13;;
33553;SDS011;19885;42.208;24.952;2022-08-21T07:41:07;12.18;;;6.28;;
33553;SDS011;19885;42.208;24.952;2022-08-21T07:43:40;9.85;;;6.88;;
33553;SDS011;19885;42.208;24.952;2022-08-21T07:46:06;12.32;;;6.93;;
33553;SDS011;19885;42.208;24.952;2022-08-21T07:48:31;10.55;;;6.45;;
33553;SDS011;19885;42.208;24.952;2022-08-21T07:50:58;11.18;;;6.28;;
33553;SDS011;19885;42.208;24.952;2022-08-21T07:53:27;12.07;;;6.65;;
33553;SDS011;19885;42.208;24.952;2022-08-21T07:55:56;13.35;;;7.10;;
33553;SDS011;19885;42.208;24.952;2022-08-21T07:58:22;13.80;;;6.72;;
33553;SDS011;19885;42.208;24.952;2022-08-21T08:00:48;18.92;;;7.65;;
33553;SDS011;19885;42.208;24.952;2022-08-21T08:03:14;10.77;;;7.07;;
33553;SDS011;19885;42.208;24.952;2022-08-21T08:05:39;14.75;;;6.90;;
33553;SDS011;19885;42.208;24.952;2022-08-21T08:08:07;13.40;;;6.28;;
33553;SDS011;19885;42.208;24.952;2022-08-21T08:16:25;15.98;;;6.53;;
33553;SDS011;19885;42.208;24.952;2022-08-21T08:18:53;9.35;;;6.03;;
33553;SDS011;19885;42.208;24.952;2022-08-21T08:21:20;11.18;;;6.07;;
33553;SDS011;19885;42.208;24.952;2022-08-21T08:23:46;15.30;;;6.25;;
33553;SDS011;19885;42.208;24.952;2022-08-21T08:26:12;17.45;;;7.93;;
33553;SDS011;19885;42.208;24.952;2022-08-21T08:28:40;12.23;;;6.72;;
33553;SDS011;19885;42.208;24.952;2022-08-21T08:31:06;13.32;;;6.20;;
33553;SDS011;19885;42.208;24.952;2022-08-21T08:33:31;10.45;;;5.95;;
33553;SDS011;19885;42.208;24.952;2022-08-21T08:35:57;14.98;;;8.00;;
33553;SDS011;19885;42.208;24.952;2022-08-21T08:38:23;15.55;;;6.78;;
33553;SDS011;19885;42.208;24.952;2022-08-21T08:43:39;13.32;;;6.97;;
33553;SDS011;19885;42.208;24.952;2022-08-21T08:46:10;10.75;;;6.55;;
33553;SDS011;19885;42.208;24.952;2022-08-21T08:48:47;10.85;;;5.85;;
33553;SDS011;19885;42.208;24.952;2022-08-21T08:51:49;11.43;;;6.20;;
33553;SDS011;19885;42.208;24.952;2022-08-21T08:54:16;15.45;;;6.75;;
33553;SDS011;19885;42.208;24.952;2022-08-21T08:56:46;11.43;;;6.38;;
33553;SDS011;19885;42.208;24.952;2022-08-21T08:59:15;15.52;;;6.97;;
33553;SDS011;19885;42.208;24.952;2022-08-21T09:01:44;21.60;;;5.93;;
33553;SDS011;19885;42.208;24.952;2022-08-21T09:04:10;10.40;;;5.85;;
33553;SDS011;19885;42.208;24.952;2022-08-21T09:10:18;10.68;;;6.63;;
33553;SDS011;19885;42.208;24.952;2022-08-21T09:28:42;13.50;;;7.43;;
33553;SDS011;19885;42.208;24.952;2022-08-21T09:31:16;14.40;;;8.07;;
33553;SDS011;19885;42.208;24.952;2022-08-21T09:33:48;10.88;;;7.72;;
33553;SDS011;19885;42.208;24.952;2022-08-21T09:36:35;13.23;;;7.10;;
33553;SDS011;19885;42.208;24.952;2022-08-21T09:39:27;16.77;;;8.27;;
33553;SDS011;19885;42.208;24.952;2022-08-21T09:41:59;13.45;;;8.07;;
33553;SDS011;19885;42.208;24.952;2022-08-21T09:44:32;19.48;;;8.38;;
33553;SDS011;19885;42.208;24.952;2022-08-21T09:47:01;20.88;;;9.15;;
33553;SDS011;19885;42.208;24.952;2022-08-21T09:49:31;15.05;;;8.43;;
33553;SDS011;19885;42.208;24.952;2022-08-21T09:51:59;17.55;;;8.60;;
33553;SDS011;19885;42.208;24.952;2022-08-21T09:54:30;13.10;;;6.90;;
33553;SDS011;19885;42.208;24.952;2022-08-21T09:59:52;16.08;;;7.32;;
33553;SDS011;19885;42.208;24.952;2022-08-21T10:02:27;11.45;;;6.88;;
33553;SDS011;19885;42.208;24.952;2022-08-21T10:05:01;9.57;;;7.07;;
33553;SDS011;19885;42.208;24.952;2022-08-21T10:07:41;12.05;;;7.47;;
33553;SDS011;19885;42.208;24.952;2022-08-21T10:25:54;11.35;;;6.63;;
33553;SDS011;19885;42.208;24.952;2022-08-21T10:36:29;12.48;;;7.80;;
33553;SDS011;19885;42.208;24.952;2022-08-21T10:47:11;15.85;;;8.27;;
33553;SDS011;19885;42.208;24.952;2022-08-21T10:49:51;26.95;;;9.30;;
33553;SDS011;19885;42.208;24.952;2022-08-21T10:55:32;15.05;;;7.43;;
33553;SDS011;19885;42.208;24.952;2022-08-21T10:58:10;11.65;;;7.45;;
33553;SDS011;19885;42.208;24.952;2022-08-21T11:03:13;11.02;;;7.32;;
33553;SDS011;19885;42.208;24.952;2022-08-21T11:05:43;15.43;;;8.40;;
33553;SDS011;19885;42.208;24.952;2022-08-21T11:08:14;13.18;;;9.05;;
33553;SDS011;19885;42.208;24.952;2022-08-21T11:13:18;13.07;;;7.82;;
33553;SDS011;19885;42.208;24.952;2022-08-21T11:15:56;12.07;;;8.32;;
33553;SDS011;19885;42.208;24.952;2022-08-21T11:18:30;13.60;;;7.68;;
33553;SDS011;19885;42.208;24.952;2022-08-21T11:26:39;10.32;;;7.13;;
33553;SDS011;19885;42.208;24.952;2022-08-21T11:29:21;14.60;;;8.05;;
33553;SDS011;19885;42.208;24.952;2022-08-21T11:35:04;11.05;;;8.05;;
33553;SDS011;19885;42.208;24.952;2022-08-21T11:50:48;11.90;;;7.35;;
33553;SDS011;19885;42.208;24.952;2022-08-21T11:53:17;19.48;;;6.93;;
33553;SDS011;19885;42.208;24.952;2022-08-21T11:56:12;13.07;;;6.85;;
33553;SDS011;19885;42.208;24.952;2022-08-21T11:59:21;14.98;;;6.93;;
33553;SDS011;19885;42.208;24.952;2022-08-21T12:02:01;12.27;;;7.93;;
33553;SDS011;19885;42.208;24.952;2022-08-21T12:04:29;9.48;;;7.55;;
33553;SDS011;19885;42.208;24.952;2022-08-21T12:07:09;11.43;;;7.22;;
33553;SDS011;19885;42.208;24.952;2022-08-21T12:09:56;17.90;;;7.65;;
33553;SDS011;19885;42.208;24.952;2022-08-21T12:14:49;13.02;;;7.57;;
33553;SDS011;19885;42.208;24.952;2022-08-21T12:17:34;17.55;;;8.60;;
33553;SDS011;19885;42.208;24.952;2022-08-21T12:20:32;18.83;;;8.73;;
33553;SDS011;19885;42.208;24.952;2022-08-21T12:25:39;13.50;;;8.23;;
33553;SDS011;19885;42.208;24.952;2022-08-21T12:28:11;9.68;;;7.38;;
33553;SDS011;19885;42.208;24.952;2022-08-21T12:30:44;13.18;;;6.90;;
33553;SDS011;19885;42.208;24.952;2022-08-21T12:33:32;12.02;;;8.52;;
33553;SDS011;19885;42.208;24.952;2022-08-21T12:36:17;13.32;;;7.40;;
33553;SDS011;19885;42.208;24.952;2022-08-21T12:38:48;17.73;;;7.93;;
33553;SDS011;19885;42.208;24.952;2022-08-21T12:41:19;12.45;;;7.80;;
33553;SDS011;19885;42.208;24.952;2022-08-21T12:43:51;17.00;;;7.53;;
33553;SDS011;19885;42.208;24.952;2022-08-21T12:46:26;9.68;;;7.32;;
33553;SDS011;19885;42.208;24.952;2022-08-21T12:49:02;12.63;;;7.97;;
33553;SDS011;19885;42.208;24.952;2022-08-21T12:54:26;17.00;;;7.53;;
33553;SDS011;19885;42.208;24.952;2022-08-21T12:56:57;12.15;;;6.93;;
33553;SDS011;19885;42.208;24.952;2022-08-21T12:59:25;8.70;;;6.53;;
33553;SDS011;19885;42.208;24.952;2022-08-21T13:01:51;12.27;;;7.57;;
33553;SDS011;19885;42.208;24.952;2022-08-21T13:04:20;17.15;;;7.03;;
33553;SDS011;19885;42.208;24.952;2022-08-21T13:06:52;8.95;;;6.63;;
33553;SDS011;19885;42.208;24.952;2022-08-21T13:09:24;9.75;;;6.25;;
33553;SDS011;19885;42.208;24.952;2022-08-21T13:11:53;11.30;;;5.75;;
33553;SDS011;19885;42.208;24.952;2022-08-21T13:16:57;10.32;;;5.90;;
33553;SDS011;19885;42.208;24.952;2022-08-21T13:19:25;12.57;;;4.95;;
33553;SDS011;19885;42.208;24.952;2022-08-21T13:21:51;19.50;;;5.07;;
33553;SDS011;19885;42.208;24.952;2022-08-21T13:25:45;12.35;;;5.10;;
33553;SDS011;19885;42.208;24.952;2022-08-21T13:28:11;9.05;;;4.82;;
33553;SDS011;19885;42.208;24.952;2022-08-21T13:30:43;7.47;;;4.57;;
33553;SDS011;19885;42.208;24.952;2022-08-21T13:33:16;10.43;;;5.07;;
33553;SDS011;19885;42.208;24.952;2022-08-21T13:38:42;12.20;;;6.47;;
33553;SDS011;19885;42.208;24.952;2022-08-21T13:41:19;9.05;;;5.22;;
33553;SDS011;19885;42.208;24.952;2022-08-21T13:43:49;7.32;;;4.28;;
33553;SDS011;19885;42.208;24.952;2022-08-21T13:46:21;10.93;;;4.47;;
33553;SDS011;19885;42.208;24.952;2022-08-21T13:48:49;7.70;;;4.68;;
33553;SDS011;19885;42.208;24.952;2022-08-21T13:51:15;6.30;;;3.53;;
33553;SDS011;19885;42.208;24.952;2022-08-21T13:56:06;5.10;;;4.18;;
33553;SDS011;19885;42.208;24.952;2022-08-21T13:58:33;12.90;;;4.43;;
33553;SDS011;19885;42.208;24.952;2022-08-21T14:01:17;10.18;;;5.03;;
33553;SDS011;19885;42.208;24.952;2022-08-21T14:03:46;11.40;;;4.53;;
33553;SDS011;19885;42.208;24.952;2022-08-21T14:06:14;13.75;;;5.65;;
33553;SDS011;19885;42.208;24.952;2022-08-21T14:08:46;6.10;;;4.47;;
33553;SDS011;19885;42.208;24.952;2022-08-21T14:11:15;9.50;;;4.47;;
33553;SDS011;19885;42.208;24.952;2022-08-21T14:13:45;9.98;;;4.63;;
33553;SDS011;19885;42.208;24.952;2022-08-21T14:16:15;9.38;;;4.45;;
33553;SDS011;19885;42.208;24.952;2022-08-21T14:18:45;6.57;;;4.38;;
33553;SDS011;19885;42.208;24.952;2022-08-21T14:21:33;7.78;;;5.07;;
33553;SDS011;19885;42.208;24.952;2022-08-21T14:24:08;9.15;;;4.80;;
33553;SDS011;19885;42.208;24.952;2022-08-21T14:26:42;11.52;;;5.80;;
33553;SDS011;19885;42.208;24.952;2022-08-21T14:29:12;8.90;;;5.03;;
33553;SDS011;19885;42.208;24.952;2022-08-21T14:31:39;8.85;;;5.43;;
33553;SDS011;19885;42.208;24.952;2022-08-21T14:34:05;8.23;;;4.68;;
33553;SDS011;19885;42.208;24.952;2022-08-21T14:36:30;7.18;;;4.95;;
33553;SDS011;19885;42.208;24.952;2022-08-21T14:38:56;8.40;;;4.63;;
33553;SDS011;19885;42.208;24.952;2022-08-21T14:41:23;11.95;;;6.00;;
33553;SDS011;19885;42.208;24.952;2022-08-21T14:43:52;8.15;;;4.45;;
33553;SDS011;19885;42.208;24.952;2022-08-21T14:46:26;5.75;;;4.25;;
33553;SDS011;19885;42.208;24.952;2022-08-21T14:48:54;7.75;;;4.90;;
33553;SDS011;19885;42.208;24.952;2022-08-21T14:51:20;8.15;;;4.68;;
33553;SDS011;19885;42.208;24.952;2022-08-21T14:53:46;12.35;;;5.85;;
33553;SDS011;19885;42.208;24.952;2022-08-21T14:56:12;7.55;;;4.53;;
33553;SDS011;19885;42.208;24.952;2022-08-21T14:58:43;7.53;;;4.45;;
33553;SDS011;19885;42.208;24.952;2022-08-21T15:01:12;7.38;;;5.15;;
33553;SDS011;19885;42.208;24.952;2022-08-21T15:03:39;8.38;;;4.55;;
33553;SDS011;19885;42.208;24.952;2022-08-21T15:06:04;7.00;;;4.60;;
33553;SDS011;19885;42.208;24.952;2022-08-21T15:08:31;6.07;;;5.22;;
33553;SDS011;19885;42.208;24.952;2022-08-21T15:10:57;10.85;;;4.63;;
33553;SDS011;19885;42.208;24.952;2022-08-21T15:13:24;7.22;;;4.50;;
33553;SDS011;19885;42.208;24.952;2022-08-21T15:15:50;5.30;;;4.07;;
33553;SDS011;19885;42.208;24.952;2022-08-21T15:18:24;7.30;;;4.65;;
33553;SDS011;19885;42.208;24.952;2022-08-21T15:20:52;7.10;;;5.22;;
33553;SDS011;19885;42.208;24.952;2022-08-21T15:23:18;9.80;;;4.95;;
33553;SDS011;19885;42.208;24.952;2022-08-21T15:25:45;9.60;;;4.45;;
33553;SDS011;19885;42.208;24.952;2022-08-21T15:28:12;5.97;;;4.18;;
33553;SDS011;19885;42.208;24.952;2022-08-21T15:30:39;7.90;;;3.92;;
33553;SDS011;19885;42.208;24.952;2022-08-21T15:33:06;7.78;;;4.30;;
33553;SDS011;19885;42.208;24.952;2022-08-21T15:35:32;9.98;;;4.50;;
33553;SDS011;19885;42.208;24.952;2022-08-21T15:37:58;8.50;;;4.53;;
33553;SDS011;19885;42.208;24.952;2022-08-21T15:40:24;8.75;;;4.70;;
33553;SDS011;19885;42.208;24.952;2022-08-21T15:42:51;6.38;;;3.78;;
33553;SDS011;19885;42.208;24.952;2022-08-21T15:45:21;8.68;;;5.25;;
33553;SDS011;19885;42.208;24.952;2022-08-21T15:47:49;8.40;;;4.55;;
33553;SDS011;19885;42.208;24.952;2022-08-21T15:50:15;5.97;;;4.07;;
33553;SDS011;19885;42.208;24.952;2022-08-21T15:52:41;7.15;;;4.03;;
33553;SDS011;19885;42.208;24.952;2022-08-21T15:55:06;9.80;;;4.50;;
33553;SDS011;19885;42.208;24.952;2022-08-21T15:57:33;6.28;;;4.10;;
33553;SDS011;19885;42.208;24.952;2022-08-21T16:00:01;10.13;;;4.35;;
33553;SDS011;19885;42.208;24.952;2022-08-21T16:02:37;8.63;;;4.72;;
33553;SDS011;19885;42.208;24.952;2022-08-21T16:05:04;7.80;;;4.68;;
33553;SDS011;19885;42.208;24.952;2022-08-21T16:07:30;6.75;;;4.55;;
33553;SDS011;19885;42.208;24.952;2022-08-21T16:09:56;7.05;;;4.32;;
33553;SDS011;19885;42.208;24.952;2022-08-21T16:12:31;8.32;;;5.07;;
33553;SDS011;19885;42.208;24.952;2022-08-21T16:14:59;8.45;;;5.13;;
33553;SDS011;19885;42.208;24.952;2022-08-21T16:17:29;7.07;;;4.70;;
33553;SDS011;19885;42.208;24.952;2022-08-21T16:19:57;5.70;;;4.35;;
33553;SDS011;19885;42.208;24.952;2022-08-21T16:22:25;10.52;;;5.43;;
33553;SDS011;19885;42.208;24.952;2022-08-21T16:24:50;5.28;;;4.45;;
33553;SDS011;19885;42.208;24.952;2022-08-21T16:27:16;7.88;;;4.75;;